Time;durP1;ratioP1;P1;durP2;ratioP2;P2;SDS_P1;SDS_P2;PMS_P1;PMS_P2;Temp;Humidity;BMP_temperature;BMP_pressure;BME280_temperature;BME280_humidity;BME280_pressure;Samples;Min_cycle;Max_cycle;Signal;HPM_P1;HPM_P2
2023/02/25 00:00:38;;;;;;;27.90;3.60;;;;;;;1.65;85.12;99133.78;10166019;29;20425;-81
2023/02/25 00:05:42;;;;;;;18.50;3.13;;;;;;;1.88;83.79;99124.31;10197115;29;20072;-80
2023/02/25 00:10:45;;;;;;;25.48;4.10;;;;;;;2.19;82.40;99133.75;10184920;29;20323;-81
2023/02/25 00:15:48;;;;;;;20.15;3.38;;;;;;;1.80;83.56;99134.56;10170226;29;20048;-81
2023/02/25 00:20:52;;;;;;;19.73;4.45;;;;;;;1.70;83.12;99129.88;10180202;29;20123;-80
2023/02/25 00:25:58;;;;;;;26.70;4.10;;;;;;;2.21;82.62;99133.66;10173338;29;20055;-81
2023/02/25 00:31:07;;;;;;;13.10;3.00;;;;;;;1.71;83.16;99126.25;10180227;29;20041;-80
2023/02/25 00:36:17;;;;;;;26.75;4.82;;;;;;;2.01;82.54;99134.97;10208710;29;20421;-80
2023/02/25 00:41:23;;;;;;;30.02;3.38;;;;;;;2.26;81.79;99137.69;10185435;29;20044;-79
2023/02/25 00:46:26;;;;;;;19.55;3.55;;;;;;;2.00;82.27;99154.44;10175795;29;20083;-80
2023/02/25 00:51:32;;;;;;;21.85;4.43;;;;;;;1.85;82.80;99145.72;10180133;29;20501;-79
2023/02/25 00:56:36;;;;;;;22.92;3.75;;;;;;;2.21;81.19;99142.44;10172263;29;20103;-79
2023/02/25 01:01:39;;;;;;;21.27;4.03;;;;;;;1.84;82.26;99142.22;10166449;29;20417;-77
2023/02/25 01:06:44;;;;;;;18.05;2.70;;;;;;;1.94;82.40;99142.47;10182248;29;20052;-81
2023/02/25 01:11:48;;;;;;;25.60;3.95;;;;;;;1.90;83.09;99147.13;10170108;29;20049;-80
2023/02/25 01:16:52;;;;;;;26.15;4.97;;;;;;;1.66;83.00;99154.81;10170808;29;20089;-77
2023/02/25 01:21:58;;;;;;;23.80;6.80;;;;;;;1.97;82.89;99157.31;10194300;29;20051;-78
2023/02/25 01:27:02;;;;;;;17.90;4.35;;;;;;;2.14;81.74;99159.72;10172002;29;20044;-78
2023/02/25 01:32:07;;;;;;;21.92;4.18;;;;;;;1.89;83.00;99153.38;10178720;29;20115;-79
2023/02/25 01:37:11;;;;;;;26.50;4.45;;;;;;;2.14;82.63;99159.72;10177732;29;20047;-78
2023/02/25 01:42:16;;;;;;;19.38;4.32;;;;;;;1.89;83.26;99153.38;10186469;29;20459;-78
2023/02/25 01:47:20;;;;;;;18.58;3.90;;;;;;;2.00;82.85;99162.41;10175131;29;20048;-78
2023/02/25 01:52:25;;;;;;;15.23;3.65;;;;;;;1.94;83.57;99169.78;10184856;29;20036;-78
2023/02/25 01:57:28;;;;;;;16.85;4.00;;;;;;;2.17;82.78;99180.72;10145714;29;20100;-78
2023/02/25 02:02:32;;;;;;;19.08;3.75;;;;;;;2.06;82.51;99185.88;10206094;23;20465;-79
2023/02/25 02:07:41;;;;;;;31.02;5.18;;;;;;;2.24;83.16;99195.22;10160495;29;20055;-81
2023/02/25 02:12:46;;;;;;;21.85;3.85;;;;;;;1.83;83.31;99190.81;10141691;29;20072;-80
2023/02/25 02:17:56;;;;;;;31.48;5.15;;;;;;;2.17;83.72;99189.50;10138201;29;20832;-83
2023/02/25 02:23:20;;;;;;;21.13;4.20;;;;;;;2.41;82.21;99188.81;10159156;29;20108;-83
2023/02/25 02:28:46;;;;;;;24.10;4.93;;;;;;;2.37;83.17;99185.53;10160731;29;20052;-82
2023/02/25 02:33:59;;;;;;;25.63;3.63;;;;;;;1.95;83.44;99181.25;10146647;29;20072;-82
2023/02/25 02:39:08;;;;;;;21.83;5.00;;;;;;;1.95;83.84;99166.22;10189197;29;20068;-83
2023/02/25 02:44:15;;;;;;;21.65;4.28;;;;;;;2.05;84.73;99189.44;10165787;29;20048;-83
2023/02/25 02:49:24;;;;;;;17.33;3.90;;;;;;;1.58;84.71;99195.97;10153055;29;20048;-83
2023/02/25 02:54:32;;;;;;;20.20;3.30;;;;;;;2.00;84.49;99188.88;10142392;29;20052;-82
2023/02/25 02:59:41;;;;;;;21.15;4.45;;;;;;;2.32;83.83;99208.84;10142474;29;20053;-83
2023/02/25 03:04:50;;;;;;;20.23;4.00;;;;;;;1.99;84.27;99203.09;10159593;29;20139;-83
2023/02/25 03:09:56;;;;;;;20.95;4.45;;;;;;;2.06;83.86;99207.91;10160720;29;20052;-81
2023/02/25 03:15:01;;;;;;;25.27;4.40;;;;;;;2.23;84.31;99214.75;10159172;29;20044;-82
2023/02/25 03:20:13;;;;;;;22.45;4.60;;;;;;;1.93;84.94;99209.63;10158497;29;20043;-82
2023/02/25 03:25:20;;;;;;;20.77;2.95;;;;;;;2.21;84.15;99208.69;10142262;29;20060;-84
2023/02/25 03:30:31;;;;;;;21.25;3.75;;;;;;;2.25;83.73;99218.16;10140286;29;20048;-83
2023/02/25 03:35:38;;;;;;;29.15;4.95;;;;;;;2.53;83.15;99224.28;10148969;29;20547;-83
2023/02/25 03:40:43;;;;;;;19.27;3.58;;;;;;;2.29;84.13;99222.28;10140365;29;20104;-82
2023/02/25 03:45:46;;;;;;;24.52;3.78;;;;;;;2.29;83.68;99226.75;10140122;29;20059;-83
2023/02/25 03:50:58;;;;;;;21.55;3.65;;;;;;;2.43;83.53;99232.00;10157004;29;20163;-83
2023/02/25 03:56:05;;;;;;;21.30;3.17;;;;;;;1.75;85.00;99245.22;10156954;29;20395;-83
2023/02/25 04:01:13;;;;;;;19.38;3.00;;;;;;;1.93;84.21;99244.06;10136408;29;20056;-83
2023/02/25 04:06:23;;;;;;;12.38;2.65;;;;;;;2.13;82.85;99254.22;10151695;29;20054;-81
2023/02/25 04:11:26;;;;;;;14.02;3.38;;;;;;;1.81;85.01;99252.75;10142022;29;20040;-82
2023/02/25 04:16:29;;;;;;;19.25;2.70;;;;;;;2.19;83.90;99258.28;10139254;29;20053;-83
2023/02/25 04:21:38;;;;;;;15.32;4.53;;;;;;;1.98;84.73;99268.47;10151932;29;20048;-81
2023/02/25 04:26:41;;;;;;;13.75;3.47;;;;;;;1.91;85.18;99253.88;10141973;29;20571;-83
2023/02/25 04:31:43;;;;;;;11.95;3.20;;;;;;;2.00;85.03;99258.59;10141635;29;20108;-82
2023/02/25 04:36:48;;;;;;;11.65;3.28;;;;;;;1.91;84.75;99267.97;10142192;29;20056;-81
2023/02/25 04:41:51;;;;;;;10.38;3.63;;;;;;;2.06;84.47;99283.88;10141352;29;20064;-83
2023/02/25 04:46:54;;;;;;;10.90;3.63;;;;;;;2.24;83.69;99282.69;10146870;29;20052;-83
2023/02/25 04:51:59;;;;;;;15.27;3.70;;;;;;;1.95;85.16;99276.59;10149225;29;20520;-83
2023/02/25 04:57:01;;;;;;;14.10;3.70;;;;;;;2.11;84.26;99279.09;10160101;29;20052;-83
2023/02/25 05:02:04;;;;;;;13.48;3.70;;;;;;;1.99;85.28;99271.94;10164289;29;20045;-83
2023/02/25 05:07:09;;;;;;;13.20;2.70;;;;;;;1.80;85.66;99286.34;10163861;29;20546;-83
2023/02/25 05:12:12;;;;;;;13.30;3.10;;;;;;;2.06;84.76;99279.41;10150564;29;20055;-84
2023/02/25 05:17:15;;;;;;;11.80;3.10;;;;;;;2.41;84.01;99268.34;10165488;29;20032;-79
2023/02/25 05:22:19;;;;;;;9.65;2.95;;;;;;;2.20;84.53;99273.25;10158426;29;20054;-84
2023/02/25 05:27:22;;;;;;;8.30;2.65;;;;;;;2.02;84.93;99277.91;10149571;29;20048;-84
2023/02/25 05:32:25;;;;;;;14.95;2.83;;;;;;;2.07;85.30;99281.09;10155485;29;20045;-82
2023/02/25 05:37:31;;;;;;;13.30;3.25;;;;;;;2.15;85.33;99288.56;10148559;29;20627;-82
2023/02/25 05:42:34;;;;;;;13.63;3.33;;;;;;;1.59;86.66;99298.25;10146845;29;20401;-84
2023/02/25 05:47:36;;;;;;;8.95;2.65;;;;;;;1.77;86.36;99307.72;10146324;29;20056;-84
2023/02/25 05:52:41;;;;;;;10.07;2.67;;;;;;;2.28;84.63;99307.22;10145994;29;20104;-84
2023/02/25 05:57:43;;;;;;;3.92;1.92;;;;;;;2.51;83.50;99309.22;10139969;29;20057;-83
2023/02/25 06:02:46;;;;;;;7.78;3.67;;;;;;;2.37;83.58;99319.84;10146345;29;20052;-82
2023/02/25 06:07:51;;;;;;;10.02;2.00;;;;;;;2.39;83.53;99324.09;10159142;29;20055;-84
2023/02/25 06:12:54;;;;;;;8.63;2.15;;;;;;;2.53;83.00;99322.38;10151291;29;20464;-82
2023/02/25 06:17:56;;;;;;;5.47;2.00;;;;;;;2.38;83.32;99329.50;10146324;29;20052;-83
2023/02/25 06:23:01;;;;;;;8.98;2.13;;;;;;;2.31;83.21;99341.47;10156969;29;20052;-83
2023/02/25 06:28:04;;;;;;;11.38;2.15;;;;;;;2.19;83.31;99348.34;10159668;29;20055;-84
2023/02/25 06:33:07;;;;;;;9.77;1.80;;;;;;;2.15;83.03;99347.72;10144593;29;20048;-82
2023/02/25 06:38:11;;;;;;;9.57;2.25;;;;;;;2.46;82.41;99358.16;10146229;29;20048;-80
2023/02/25 06:43:14;;;;;;;8.50;2.13;;;;;;;2.16;83.07;99364.44;10168784;29;20055;-80
2023/02/25 06:48:17;;;;;;;8.65;2.17;;;;;;;2.28;82.54;99373.47;10172090;29;20115;-82
2023/02/25 06:53:23;;;;;;;10.27;3.25;;;;;;;2.47;82.19;99381.94;10170745;29;20047;-79
2023/02/25 06:58:26;;;;;;;8.32;2.08;;;;;;;2.44;82.19;99384.78;10140795;29;20045;-80
2023/02/25 07:03:28;;;;;;;8.27;2.10;;;;;;;2.31;82.24;99397.09;10141607;29;20576;-80
2023/02/25 07:08:33;;;;;;;10.18;2.47;;;;;;;2.70;81.58;99411.47;10140806;29;20044;-81
2023/02/25 07:13:36;;;;;;;9.52;1.73;;;;;;;2.33;80.50;99421.69;10128354;29;20048;-80
2023/02/25 07:18:39;;;;;;;7.75;3.10;;;;;;;2.61;80.64;99424.38;10106279;29;20136;-80
2023/02/25 07:23:45;;;;;;;6.88;1.90;;;;;;;2.42;79.44;99425.59;10099044;29;20129;-78
2023/02/25 07:28:48;;;;;;;6.78;1.63;;;;;;;2.50;79.32;99440.06;10110047;29;20063;-80
2023/02/25 07:33:51;;;;;;;7.65;1.75;;;;;;;2.44;78.50;99445.75;10114150;29;20097;-79
2023/02/25 07:38:56;;;;;;;3.70;1.63;;;;;;;2.69;79.09;99438.91;10132087;29;21367;-79
2023/02/25 07:43:59;;;;;;;8.93;1.85;;;;;;;3.29;76.49;99451.84;10094299;29;20045;-79
2023/02/25 07:49:02;;;;;;;5.57;1.10;;;;;;;3.25;75.17;99445.03;10113582;29;20040;-80
2023/02/25 07:54:07;;;;;;;4.47;1.40;;;;;;;3.66;76.26;99460.03;10110003;29;20051;-78
2023/02/25 07:59:10;;;;;;;3.78;1.05;;;;;;;3.62;74.07;99453.22;10107707;29;20195;-80
2023/02/25 08:04:13;;;;;;;7.05;1.10;;;;;;;3.65;73.01;99461.00;10111609;29;20052;-79
2023/02/25 08:09:17;;;;;;;9.10;1.23;;;;;;;3.64;71.88;99468.09;10100608;29;20056;-78
2023/02/25 08:14:21;;;;;;;3.95;1.00;;;;;;;3.94;72.49;99467.81;10114645;29;20052;-79
2023/02/25 08:19:24;;;;;;;7.93;1.10;;;;;;;3.82;71.44;99470.47;10109962;29;20157;-80
2023/02/25 08:24:28;;;;;;;7.18;1.10;;;;;;;3.97;72.14;99481.88;10123740;29;20075;-80
2023/02/25 08:29:31;;;;;;;2.65;0.98;;;;;;;3.62;72.69;99485.06;10119388;29;20553;-81
2023/02/25 08:34:34;;;;;;;5.10;1.70;;;;;;;3.75;72.51;99475.34;10106289;29;20716;-79
2023/02/25 08:39:39;;;;;;;4.72;1.30;;;;;;;3.72;71.40;99479.03;10105300;29;20535;-79
2023/02/25 08:44:42;;;;;;;7.15;1.02;;;;;;;3.98;69.20;99463.16;10066774;29;20406;-80
2023/02/25 08:49:46;;;;;;;4.72;1.20;;;;;;;3.70;69.21;99480.09;10119239;29;20523;-79
2023/02/25 08:54:50;;;;;;;5.05;0.90;;;;;;;3.72;71.14;99479.03;10104179;29;20064;-81
2023/02/25 08:59:54;;;;;;;5.97;1.30;;;;;;;3.60;72.87;99493.16;10112472;29;20184;-79
2023/02/25 09:04:56;;;;;;;6.72;1.10;;;;;;;3.27;71.13;99504.19;10157685;29;20040;-80
2023/02/25 09:10:03;;;;;;;8.35;1.15;;;;;;;2.80;68.49;99506.28;10125342;29;20053;-81
2023/02/25 09:15:07;;;;;;;7.25;1.15;;;;;;;2.80;68.24;99516.03;10139375;29;20155;-79
2023/02/25 09:20:11;;;;;;;6.05;1.40;;;;;;;3.27;66.61;99530.72;10104000;29;20064;-80
2023/02/25 09:25:15;;;;;;;10.10;1.58;;;;;;;4.83;63.53;99527.31;10114084;29;21221;-80
2023/02/25 09:30:18;;;;;;;9.65;1.77;;;;;;;6.01;58.97;99524.00;10139438;29;20142;-79
2023/02/25 09:35:21;;;;;;;9.25;1.25;;;;;;;6.53;55.58;99516.50;10117852;29;20127;-79
2023/02/25 09:40:25;;;;;;;13.02;1.58;;;;;;;7.26;55.14;99532.03;10141261;29;20051;-80
2023/02/25 09:45:32;;;;;;;9.57;1.00;;;;;;;7.21;52.08;99530.69;10128761;29;20048;-79
2023/02/25 09:50:41;;;;;;;4.53;0.88;;;;;;;6.23;51.25;99541.91;10120393;29;20079;-81
2023/02/25 09:55:49;;;;;;;7.57;1.48;;;;;;;5.24;54.78;99572.28;10104580;29;20504;-79
2023/02/25 10:01:03;;;;;;;5.80;1.00;;;;;;;4.25;61.77;99588.03;10120099;29;20066;-79
2023/02/25 10:06:14;;;;;;;5.60;1.65;;;;;;;3.42;64.13;99611.19;10128152;29;20144;-80
2023/02/25 10:11:29;;;;;;;7.47;1.10;;;;;;;3.37;66.13;99611.47;10113203;29;20108;-79
2023/02/25 10:16:42;;;;;;;8.20;1.25;;;;;;;3.48;66.20;99616.09;10108025;29;20139;-79
2023/02/25 10:22:08;;;;;;;3.97;1.90;;;;;;;3.99;66.14;99619.00;10131735;29;20684;-79
2023/02/25 10:27:20;;;;;;;7.45;1.40;;;;;;;3.82;65.52;99632.53;10104828;29;20060;-79
2023/02/25 10:32:25;;;;;;;9.82;2.15;;;;;;;3.98;64.61;99643.88;10109163;29;20041;-79
2023/02/25 10:37:32;;;;;;;7.25;1.40;;;;;;;4.64;63.57;99641.28;10111798;29;20413;-80
2023/02/25 10:42:37;;;;;;;9.95;1.52;;;;;;;5.33;60.77;99648.00;10117182;29;20131;-80
2023/02/25 10:47:42;;;;;;;7.05;1.13;;;;;;;5.05;54.98;99649.94;10099335;29;20063;-79
2023/02/25 10:53:04;;;;;;;6.45;1.17;;;;;;;6.78;49.53;99649.72;10105203;29;20056;-80
2023/02/25 10:58:25;;;;;;;3.15;1.02;;;;;;;5.50;48.45;99654.78;10143943;29;20048;-79
2023/02/25 11:03:31;;;;;;;2.72;0.85;;;;;;;4.70;48.63;99651.50;10118519;29;20143;-79
2023/02/25 11:08:35;;;;;;;4.20;0.80;;;;;;;4.54;48.60;99651.69;10103219;29;20065;-79
2023/02/25 11:13:40;;;;;;;3.33;0.80;;;;;;;8.52;42.64;99643.84;10111297;29;20463;-79
2023/02/25 11:18:43;;;;;;;4.00;0.70;;;;;;;8.15;40.25;99654.91;10116842;29;20053;-79
2023/02/25 11:23:48;;;;;;;2.88;0.65;;;;;;;7.64;41.91;99653.69;10101135;29;20819;-80
2023/02/25 11:28:52;;;;;;;4.75;0.60;;;;;;;5.97;44.45;99674.47;10120851;29;20056;-79
2023/02/25 11:33:59;;;;;;;4.57;1.85;;;;;;;5.12;43.38;99673.47;10086074;29;20044;-80
2023/02/25 11:39:07;;;;;;;1.65;0.40;;;;;;;7.14;41.36;99682.59;10112943;29;20081;-81
2023/02/25 11:44:22;;;;;;;3.22;0.35;;;;;;;9.67;37.89;99682.16;10091157;29;20054;-80
2023/02/25 11:49:34;;;;;;;4.75;0.60;;;;;;;11.29;35.56;99685.22;10135118;29;20129;-81
2023/02/25 11:54:48;;;;;;;1.88;0.60;;;;;;;8.94;35.42;99692.06;10151290;29;20452;-81
2023/02/25 12:00:05;;;;;;;2.35;0.43;;;;;;;6.55;39.60;99709.31;10144385;29;20044;-80
2023/02/25 12:05:34;;;;;;;1.50;0.47;;;;;;;6.56;42.78;99711.88;10123363;29;20058;-79
2023/02/25 12:11:07;;;;;;;1.67;1.25;;;;;;;8.18;38.89;99709.00;10102101;29;20243;-80
2023/02/25 12:16:41;;;;;;;2.25;0.98;;;;;;;7.48;39.75;99723.53;10060318;29;20064;-80
2023/02/25 12:22:22;;;;;;;1.08;0.52;;;;;;;6.29;41.20;99744.13;10077932;29;20056;-80
2023/02/25 12:28:09;;;;;;;3.33;0.80;;;;;;;5.28;43.27;99738.88;10084809;29;20522;-80
2023/02/25 12:33:36;;;;;;;2.33;0.68;;;;;;;6.21;41.80;99751.00;10072428;29;20052;-80
2023/02/25 12:39:10;;;;;;;2.53;0.50;;;;;;;7.22;39.02;99744.28;10101154;29;20056;-80
2023/02/25 12:44:51;;;;;;;1.70;0.60;;;;;;;7.12;39.56;99753.13;10104256;29;20061;-79
2023/02/25 12:50:08;;;;;;;1.00;0.40;;;;;;;6.33;39.86;99761.59;10120341;29;20066;-80
2023/02/25 12:55:41;;;;;;;3.40;0.45;;;;;;;5.94;40.77;99768.00;10110814;29;20064;-80
2023/02/25 13:01:03;;;;;;;1.75;0.55;;;;;;;5.44;41.91;99762.63;10130352;29;20055;-80
2023/02/25 13:06:31;;;;;;;2.15;0.70;;;;;;;5.45;42.35;99764.31;10150500;29;20044;-80
2023/02/25 13:11:49;;;;;;;0.70;0.70;;;;;;;5.61;43.14;99784.56;10136388;29;20068;-78
2023/02/25 13:17:33;;;;;;;2.28;1.15;;;;;;;6.54;42.59;99779.69;10146091;29;20092;-80
2023/02/25 13:22:52;;;;;;;3.45;0.68;;;;;;;6.18;43.62;99781.41;10090983;29;20108;-79
2023/02/25 13:28:07;;;;;;;2.05;0.60;;;;;;;7.71;38.51;99793.91;10104026;29;20041;-80
2023/02/25 13:33:25;;;;;;;4.50;0.90;;;;;;;5.87;41.34;99802.25;10119971;29;20054;-81
2023/02/25 13:38:41;;;;;;;3.50;1.60;;;;;;;5.25;44.26;99803.00;10095182;29;20064;-79
2023/02/25 13:43:54;;;;;;;2.40;0.90;;;;;;;4.91;46.23;99827.47;10105614;29;20077;-80
2023/02/25 13:49:22;;;;;;;4.45;0.88;;;;;;;4.90;45.49;99828.44;10084130;29;20048;-80
2023/02/25 13:55:00;;;;;;;2.85;0.80;;;;;;;7.37;41.67;99817.03;10109142;29;20076;-80
2023/02/25 14:00:39;;;;;;;2.42;0.80;;;;;;;7.59;40.23;99818.91;10108800;29;20055;-82
2023/02/25 14:06:02;;;;;;;3.40;1.00;;;;;;;6.37;41.60;99821.78;10116875;29;20213;-80
2023/02/25 14:11:25;;;;;;;3.70;1.90;;;;;;;6.12;42.36;99830.69;10106216;29;20057;-79
2023/02/25 14:16:43;;;;;;;2.60;0.93;;;;;;;7.92;40.14;99823.44;10104716;29;20053;-81
2023/02/25 14:22:06;;;;;;;1.45;0.70;;;;;;;9.85;36.21;99828.06;10102387;29;20053;-80
2023/02/25 14:27:20;;;;;;;2.25;0.90;;;;;;;8.15;36.57;99859.09;10105353;29;20124;-80
2023/02/25 14:32:42;;;;;;;1.08;0.80;;;;;;;6.66;38.88;99880.16;10104460;29;20147;-81
2023/02/25 14:37:56;;;;;;;1.13;0.63;;;;;;;7.48;38.31;99867.00;10137288;29;20052;-80
2023/02/25 14:43:15;;;;;;;1.95;0.80;;;;;;;8.51;36.75;99883.91;10112761;29;20104;-80
2023/02/25 14:48:25;;;;;;;1.40;0.60;;;;;;;9.67;35.28;99884.13;10116884;29;20140;-80
2023/02/25 14:53:52;;;;;;;3.67;0.90;;;;;;;7.76;37.21;99905.81;10104218;29;20355;-79
2023/02/25 14:59:41;;;;;;;2.00;0.60;;;;;;;7.00;37.36;99918.66;10128195;29;20523;-80
2023/02/25 15:05:18;;;;;;;2.70;0.50;;;;;;;7.89;36.16;99932.47;10107810;29;20076;-80
2023/02/25 15:10:33;;;;;;;2.90;0.70;;;;;;;9.09;34.76;99926.53;10099307;29;20531;-81
2023/02/25 15:15:54;;;;;;;3.80;1.08;;;;;;;10.14;34.10;99924.81;10111798;29;20492;-80
2023/02/25 15:20:59;;;;;;;1.77;0.77;;;;;;;9.24;33.76;99927.09;10111765;29;20052;-79
2023/02/25 15:26:21;;;;;;;3.83;0.95;;;;;;;8.69;34.21;99935.09;10075502;29;20140;-80
2023/02/25 15:31:28;;;;;;;1.67;1.00;;;;;;;8.21;35.42;99942.50;10064141;29;21287;-80
2023/02/25 15:36:42;;;;;;;3.55;1.00;;;;;;;7.21;37.61;99948.28;10101880;29;20053;-81
2023/02/25 15:41:58;;;;;;;3.83;1.30;;;;;;;6.34;39.86;99968.72;10105346;29;20049;-81
2023/02/25 15:47:23;;;;;;;3.70;1.02;;;;;;;5.57;40.51;99977.56;10148681;29;20059;-80
2023/02/25 15:53:01;;;;;;;5.00;1.27;;;;;;;4.95;40.94;99986.03;10149438;29;20127;-79
2023/02/25 15:58:37;;;;;;;3.05;1.25;;;;;;;4.81;41.26;99993.06;9982155;29;20128;-81
2023/02/25 16:03:42;;;;;;;4.60;1.23;;;;;;;4.46;42.01;100003.25;10133422;29;20081;-80
2023/02/25 16:08:52;;;;;;;2.33;1.23;;;;;;;4.16;42.29;100001.50;10124587;29;20758;-80
2023/02/25 16:13:55;;;;;;;3.63;1.15;;;;;;;4.42;42.94;100009.72;10072335;29;20479;-79
2023/02/25 16:19:00;;;;;;;2.40;1.33;;;;;;;4.22;43.59;100018.06;10140027;29;20139;-80
2023/02/25 16:24:07;;;;;;;4.25;1.10;;;;;;;4.20;43.61;100028.78;10121381;29;20146;-80
2023/02/25 16:29:25;;;;;;;6.22;1.27;;;;;;;4.44;43.14;100034.41;10105095;29;20052;-80
2023/02/25 16:34:34;;;;;;;2.55;1.20;;;;;;;4.31;43.50;100044.94;10119321;29;20063;-80
2023/02/25 16:39:39;;;;;;;9.20;1.58;;;;;;;4.25;44.23;100052.44;10130010;29;21314;-80
2023/02/25 16:44:55;;;;;;;3.72;1.10;;;;;;;3.80;45.54;100055.06;10122306;29;20060;-80
2023/02/25 16:50:00;;;;;;;2.28;1.02;;;;;;;3.47;46.23;100065.81;10110745;29;20057;-78
2023/02/25 16:55:08;;;;;;;1.67;0.95;;;;;;;3.14;47.35;100068.56;10112441;29;20049;-79
2023/02/25 17:00:18;;;;;;;6.22;0.95;;;;;;;2.99;48.06;100079.09;10111400;29;20075;-79
2023/02/25 17:05:24;;;;;;;4.43;1.83;;;;;;;2.77;48.53;100086.47;10116739;29;20056;-79
2023/02/25 17:10:32;;;;;;;9.43;1.30;;;;;;;2.70;49.10;100090.41;10112043;29;20056;-78
2023/02/25 17:15:36;;;;;;;11.57;1.40;;;;;;;2.43;49.44;100103.28;10112042;29;21434;-79
2023/02/25 17:20:40;;;;;;;6.32;2.85;;;;;;;2.45;50.24;100099.59;10113551;29;20063;-79
2023/02/25 17:25:48;;;;;;;6.43;2.30;;;;;;;2.35;50.86;100101.00;10108972;29;20124;-81
2023/02/25 17:30:51;;;;;;;6.40;1.83;;;;;;;2.23;51.60;100112.25;10108091;29;20160;-79
2023/02/25 17:35:58;;;;;;;5.30;1.58;;;;;;;2.17;52.31;100116.06;10107391;29;20480;-79
2023/02/25 17:41:03;;;;;;;10.00;1.90;;;;;;;1.95;53.08;100124.22;10104738;29;20141;-78
2023/02/25 17:46:17;;;;;;;3.17;1.42;;;;;;;1.93;53.15;100137.53;10108466;29;20051;-80
2023/02/25 17:51:28;;;;;;;2.78;1.20;;;;;;;1.82;53.69;100134.56;10078137;29;20056;-80
2023/02/25 17:56:37;;;;;;;2.47;1.40;;;;;;;1.77;52.89;100128.63;10115904;29;20129;-79
2023/02/25 18:01:48;;;;;;;1.75;1.10;;;;;;;1.78;52.86;100132.97;10108360;29;20260;-79
2023/02/25 18:06:51;;;;;;;3.70;1.48;;;;;;;1.63;53.25;100134.59;10118125;29;20112;-79
2023/02/25 18:11:58;;;;;;;5.10;1.35;;;;;;;1.58;53.91;100149.84;10121810;29;20071;-79
2023/02/25 18:17:12;;;;;;;4.57;1.38;;;;;;;1.52;54.22;100158.06;10088240;29;20511;-79
2023/02/25 18:22:33;;;;;;;10.15;3.65;;;;;;;1.36;54.34;100157.06;10125554;29;20130;-78
2023/02/25 18:27:38;;;;;;;14.47;5.30;;;;;;;1.32;54.57;100159.00;10150543;29;20673;-79
2023/02/25 18:32:40;;;;;;;5.97;2.38;;;;;;;1.29;54.60;100172.38;10109072;29;20151;-78
2023/02/25 18:37:46;;;;;;;7.82;1.65;;;;;;;1.16;55.29;100176.53;10125445;29;20112;-78
2023/02/25 18:42:50;;;;;;;7.25;1.60;;;;;;;1.03;55.92;100179.69;10116130;29;20072;-79
2023/02/25 18:47:55;;;;;;;5.43;1.70;;;;;;;0.88;55.74;100187.44;10128168;29;20063;-79
2023/02/25 18:52:59;;;;;;;4.25;1.58;;;;;;;0.84;55.99;100187.59;10145048;29;20115;-78
2023/02/25 18:58:03;;;;;;;7.95;1.73;;;;;;;0.91;55.72;100190.84;10128750;29;20096;-78
2023/02/25 19:03:06;;;;;;;7.65;1.77;;;;;;;0.90;55.94;100181.16;10132309;29;20044;-78
2023/02/25 19:08:13;;;;;;;5.20;2.08;;;;;;;0.73;55.89;100195.13;10153806;29;20115;-79
2023/02/25 19:13:23;;;;;;;5.18;2.22;;;;;;;1.10;56.66;100203.22;10129848;29;20095;-79
2023/02/25 19:18:26;;;;;;;4.43;1.45;;;;;;;1.15;55.84;100198.59;10115714;29;20058;-79
2023/02/25 19:23:29;;;;;;;5.70;2.00;;;;;;;1.30;55.13;100207.66;10161631;29;20111;-78
2023/02/25 19:28:33;;;;;;;3.97;1.77;;;;;;;1.28;55.66;100213.00;10143839;29;20083;-81
2023/02/25 19:33:36;;;;;;;3.83;1.48;;;;;;;1.18;56.88;100212.56;10080824;29;20060;-79
2023/02/25 19:38:39;;;;;;;4.78;2.00;;;;;;;1.23;57.34;100221.13;10080817;29;20053;-78
2023/02/25 19:43:43;;;;;;;8.20;1.65;;;;;;;1.04;58.61;100225.53;10098983;29;21164;-78
2023/02/25 19:48:46;;;;;;;3.28;1.38;;;;;;;1.03;60.61;100237.91;10098877;29;20140;-79
2023/02/25 19:53:49;;;;;;;3.78;1.50;;;;;;;1.00;62.05;100239.81;10116755;29;20093;-79
2023/02/25 19:58:57;;;;;;;2.83;1.10;;;;;;;1.02;62.57;100254.72;10139659;29;20048;-79
2023/02/25 20:04:01;;;;;;;4.03;1.30;;;;;;;0.99;63.11;100254.00;10148679;29;20052;-78
2023/02/25 20:09:06;;;;;;;6.15;1.77;;;;;;;0.82;63.42;100274.09;10171881;29;20036;-79
2023/02/25 20:14:12;;;;;;;6.13;1.52;;;;;;;0.87;63.73;100283.59;10155955;29;20052;-79
2023/02/25 20:19:15;;;;;;;3.22;1.80;;;;;;;0.96;63.89;100288.47;10113914;29;20063;-79
2023/02/25 20:24:18;;;;;;;3.90;1.65;;;;;;;0.96;64.16;100286.72;10118117;29;21184;-79
2023/02/25 20:29:22;;;;;;;4.18;1.83;;;;;;;0.95;64.45;100276.19;10120751;29;20189;-79
2023/02/25 20:34:26;;;;;;;3.30;1.63;;;;;;;0.95;64.57;100294.72;10115248;29;20049;-78
2023/02/25 20:39:44;;;;;;;3.63;1.40;;;;;;;0.98;64.90;100291.94;10108927;29;20060;-80
2023/02/25 20:44:49;;;;;;;3.33;1.52;;;;;;;1.02;65.21;100314.69;10112003;29;21205;-78
2023/02/25 20:49:54;;;;;;;3.33;1.95;;;;;;;1.02;65.64;100315.56;10124666;29;20044;-79
2023/02/25 20:54:57;;;;;;;4.15;1.80;;;;;;;0.86;66.66;100303.03;10142066;29;20460;-78
2023/02/25 21:00:02;;;;;;;5.25;1.50;;;;;;;0.97;67.21;100309.59;10123610;29;20058;-79
2023/02/25 21:05:05;;;;;;;6.18;3.13;;;;;;;0.86;67.83;100318.91;10113541;29;20044;-79
2023/02/25 21:10:10;;;;;;;15.95;6.60;;;;;;;0.51;68.95;100330.00;10166482;29;20095;-79
2023/02/25 21:15:14;;;;;;;11.73;6.10;;;;;;;0.50;69.19;100332.72;10124996;29;20048;-78
2023/02/25 21:20:17;;;;;;;6.10;3.30;;;;;;;0.34;69.61;100335.09;10132802;29;20084;-78
2023/02/25 21:25:20;;;;;;;4.22;2.70;;;;;;;0.24;69.86;100339.03;10138681;29;20056;-78
2023/02/25 21:30:24;;;;;;;6.63;3.15;;;;;;;0.12;70.39;100348.28;10132425;29;20052;-79
2023/02/25 21:35:28;;;;;;;9.23;3.08;;;;;;;0.01;70.53;100351.34;10122879;29;20188;-79
2023/02/25 21:40:31;;;;;;;6.72;3.08;;;;;;;0.03;70.51;100360.06;10131638;29;20061;-78
2023/02/25 21:45:35;;;;;;;6.82;2.97;;;;;;;-0.02;70.58;100363.81;10115081;29;20059;-78
2023/02/25 21:50:44;;;;;;;4.38;2.60;;;;;;;-0.08;70.63;100363.09;10124492;29;20045;-78
2023/02/25 21:55:47;;;;;;;7.45;2.63;;;;;;;-0.14;70.26;100366.00;10108181;29;20149;-79
2023/02/25 22:00:51;;;;;;;7.50;2.67;;;;;;;-0.19;70.70;100369.69;10115257;29;20059;-77
2023/02/25 22:05:54;;;;;;;7.28;2.55;;;;;;;-0.20;70.51;100373.25;10112932;29;21559;-78
2023/02/25 22:10:57;;;;;;;7.75;3.63;;;;;;;-0.30;70.38;100383.31;10128732;29;20561;-78
2023/02/25 22:16:03;;;;;;;6.32;3.17;;;;;;;-0.36;70.36;100387.00;10142739;29;20054;-78
2023/02/25 22:21:08;;;;;;;7.85;4.00;;;;;;;-0.39;70.39;100392.38;10110408;29;20112;-78
2023/02/25 22:26:13;;;;;;;7.15;3.65;;;;;;;-0.39;70.46;100392.38;10127992;29;20064;-78
2023/02/25 22:31:18;;;;;;;7.95;4.05;;;;;;;-0.37;70.40;100393.19;10126114;29;20056;-79
2023/02/25 22:36:21;;;;;;;12.38;4.05;;;;;;;-0.34;70.22;100394.88;10125429;29;20049;-80
2023/02/25 22:41:27;;;;;;;7.30;3.95;;;;;;;-0.32;70.06;100393.03;10182774;23;20052;-80
2023/02/25 22:46:34;;;;;;;8.82;4.40;;;;;;;-0.32;69.91;100400.97;10167762;29;20090;-80
2023/02/25 22:51:40;;;;;;;7.65;4.05;;;;;;;-0.39;69.69;100397.66;10166539;29;20563;-81
2023/02/25 22:56:44;;;;;;;7.72;4.05;;;;;;;-0.46;69.79;100405.88;10178865;29;20126;-81
2023/02/25 23:01:49;;;;;;;7.45;3.78;;;;;;;-0.52;69.42;100413.09;10174079;29;20052;-80
2023/02/25 23:06:54;;;;;;;12.43;3.67;;;;;;;-0.60;69.86;100415.13;10171601;29;20060;-80
2023/02/25 23:11:58;;;;;;;5.40;3.33;;;;;;;-0.65;69.89;100419.69;10177629;29;20459;-81
2023/02/25 23:17:03;;;;;;;6.50;3.42;;;;;;;-0.66;69.48;100415.31;10184996;29;20048;-80
2023/02/25 23:22:08;;;;;;;6.90;3.10;;;;;;;-0.67;69.66;100431.22;10168667;29;20044;-80
2023/02/25 23:27:11;;;;;;;8.52;4.28;;;;;;;-0.73;69.60;100424.38;10194665;29;20059;-80
2023/02/25 23:32:15;;;;;;;3.78;2.60;;;;;;;-0.79;69.28;100432.50;10169827;29;20131;-80
2023/02/25 23:37:18;;;;;;;4.88;2.45;;;;;;;-0.78;69.11;100445.63;10168172;29;20049;-80
2023/02/25 23:42:20;;;;;;;6.95;2.72;;;;;;;-0.81;69.15;100451.00;10160277;29;20044;-80
2023/02/25 23:47:24;;;;;;;7.15;2.90;;;;;;;-0.79;69.23;100457.09;10172820;29;20048;-79
2023/02/25 23:52:27;;;;;;;8.52;2.45;;;;;;;-0.83;69.13;100460.72;10181055;29;20049;-80
2023/02/25 23:57:30;;;;;;;4.82;2.58;;;;;;;-0.88;68.95;100467.06;10160709;29;20058;-79
